MOL Modern — V7VS6 — position and weather

sailwx.info

Track history (hours):
 
Tides and Currents Weather Stations Pressure Air Temp Water Temp Dewpoint Dewpoint Depression Visibility Wind Speed Wind Dir Waves Ship Positions

MOL Modern

Last reported at 2016-Jun-24 19:33 UTC. Time now 2016-Jun-30 12:19 UTC.
Position N 35°39' E 141°49'.

Length 302 m; draft 12 m.

Type: Ship (hazmat cat A). MMSI: 538004203.

Date/timePositionNaut miles runAvg speedWind from/ knotsBaromVisibWave heightAir tempDewpointWater temp
2016-Jun-24 19:33N 35°39' E 141°49'6320.3
2016-Jun-24 16:27N 35°10' E 140°40'1820.0
2016-Jun-24 15:33N 35°01' E 140°21'2019.8
2016-Jun-24 14:33N 34°51' E 140°00'1514.7
2016-Jun-24 13:33N 34°54' E 139°43'1717.5
2016-Jun-24 12:33N 35°11' E 139°46'1212.1
2016-Jun-24 11:33N 35°23' E 139°42'1212.3
2016-Jun-24 10:34N 35°34' E 139°49'3 3.3
2016-Jun-24 09:32N 35°36' E 139°46'0 0.0
2016-Jun-24 08:32N 35°36' E 139°46'0 0.0
2016-Jun-24 07:32N 35°36' E 139°46'0 0.0
2016-Jun-24 04:32N 35°36' E 139°46'0 0.0
2016-Jun-24 03:23N 35°36' E 139°46'0 0.0
2016-Jun-24 02:32N 35°36' E 139°46'0 0.0
2016-Jun-24 01:32N 35°36' E 139°46'0 0.0
2016-Jun-24 00:32N 35°36' E 139°46'0 0.0
2016-Jun-23 23:32N 35°36' E 139°46'0 0.1
2016-Jun-23 22:33N 35°36' E 139°46'8 8.2
2016-Jun-23 21:34N 35°30' E 139°52'1313.0
2016-Jun-23 20:33N 35°18' E 139°45'1010.5
2016-Jun-23 19:33N 35°08' E 139°45'1010.2
2016-Jun-23 18:33N 34°58' E 139°42'1211.7
2016-Jun-23 17:33N 34°47' E 139°35'1211.9
2016-Jun-23 16:33N 34°37' E 139°27'  
2016-Jun-21 03:33N 30°37' E 123°02'1414.2
2016-Jun-21 02:33N 30°35' E 122°46'1412.8
2016-Jun-21 01:28N 30°33' E 122°30'13 0.8
2016-Jun-20 09:10N 30°28' E 122°44'1010.6
2016-Jun-20 08:16N 30°30' E 122°55'  
Track history (hours):
 
Tides and Currents Weather Stations Pressure Air Temp Water Temp Dewpoint Dewpoint Depression Visibility Wind Speed Wind Dir Waves Ship Positions

MOL Modern

Last reported at 2016-Jun-24 19:33 UTC. Time now 2016-Jun-30 12:19 UTC.
Position N 35°39' E 141°49'.

Length 302 m; draft 12 m.

Type: Ship (hazmat cat A). MMSI: 538004203.

Date/timePositionNaut miles runAvg speedWind from/ knotsBaromVisibWave heightAir tempDewpointWater temp
2016-Jun-24 19:33N 35°39' E 141°49'6320.3
2016-Jun-24 16:27N 35°10' E 140°40'1820.0
2016-Jun-24 15:33N 35°01' E 140°21'2019.8
2016-Jun-24 14:33N 34°51' E 140°00'1514.7
2016-Jun-24 13:33N 34°54' E 139°43'1717.5
2016-Jun-24 12:33N 35°11' E 139°46'1212.1
2016-Jun-24 11:33N 35°23' E 139°42'1212.3
2016-Jun-24 10:34N 35°34' E 139°49'3 3.3
2016-Jun-24 09:32N 35°36' E 139°46'0 0.0
2016-Jun-24 08:32N 35°36' E 139°46'0 0.0
2016-Jun-24 07:32N 35°36' E 139°46'0 0.0
2016-Jun-24 04:32N 35°36' E 139°46'0 0.0
2016-Jun-24 03:23N 35°36' E 139°46'0 0.0
2016-Jun-24 02:32N 35°36' E 139°46'0 0.0
2016-Jun-24 01:32N 35°36' E 139°46'0 0.0
2016-Jun-24 00:32N 35°36' E 139°46'0 0.0
2016-Jun-23 23:32N 35°36' E 139°46'0 0.1
2016-Jun-23 22:33N 35°36' E 139°46'8 8.2
2016-Jun-23 21:34N 35°30' E 139°52'1313.0
2016-Jun-23 20:33N 35°18' E 139°45'1010.5
2016-Jun-23 19:33N 35°08' E 139°45'1010.2
2016-Jun-23 18:33N 34°58' E 139°42'1211.7
2016-Jun-23 17:33N 34°47' E 139°35'1211.9
2016-Jun-23 16:33N 34°37' E 139°27'  
2016-Jun-21 03:33N 30°37' E 123°02'1414.2
2016-Jun-21 02:33N 30°35' E 122°46'1412.8
2016-Jun-21 01:28N 30°33' E 122°30'13 0.8
2016-Jun-20 09:10N 30°28' E 122°44'1010.6
2016-Jun-20 08:16N 30°30' E 122°55'  

Dump ship's entire track history